Time;durP1;ratioP1;P1;durP2;ratioP2;P2;SDS_P1;SDS_P2;PMS_P1;PMS_P2;Temp;Humidity;BMP_temperature;BMP_pressure;BME280_temperature;BME280_humidity;BME280_pressure;Samples;Min_cycle;Max_cycle;Signal;HPM_P1;HPM_P2
2021/06/03 00:01:16;;;;;;;9.32;5.55;;;;;;;16.10;54.80;100542.19;4470700;32;33412;-84
2021/06/03 00:03:44;;;;;;;9.20;5.45;;;;;;;16.06;54.72;100546.63;4469327;32;33850;-85
2021/06/03 00:06:11;;;;;;;9.38;5.55;;;;;;;16.03;54.84;100549.28;4456770;32;34620;-84
2021/06/03 00:08:39;;;;;;;10.32;5.53;;;;;;;16.09;54.99;100550.97;4469496;32;34095;-84
2021/06/03 00:11:09;;;;;;;11.35;5.50;;;;;;;16.10;54.95;100552.69;4469370;32;34563;-84
2021/06/03 00:13:39;;;;;;;10.50;5.25;;;;;;;16.02;55.10;100549.28;4469546;32;33863;-84
2021/06/03 00:16:10;;;;;;;11.68;5.22;;;;;;;16.03;55.10;100553.62;4456460;32;34413;-84
2021/06/03 00:18:39;;;;;;;11.43;5.70;;;;;;;16.01;55.24;100556.28;4469530;32;35758;-84
2021/06/03 00:21:08;;;;;;;12.23;5.68;;;;;;;15.92;55.43;100551.16;4469467;32;33278;-84
2021/06/03 00:23:36;;;;;;;8.95;4.82;;;;;;;15.84;55.74;100552.09;4469291;32;33790;-84
2021/06/03 00:26:04;;;;;;;11.10;5.57;;;;;;;15.86;55.57;100556.44;4469414;32;34390;-84
2021/06/03 00:28:33;;;;;;;10.13;5.40;;;;;;;15.92;55.49;100566.00;4468487;32;34003;-85
2021/06/03 00:31:08;;;;;;;10.80;5.65;;;;;;;15.84;55.53;100559.94;4470552;32;34777;-84
2021/06/03 00:33:36;;;;;;;10.32;6.28;;;;;;;15.83;55.57;100566.09;4470385;32;34677;-84
2021/06/03 00:36:07;;;;;;;10.73;5.93;;;;;;;15.85;55.47;100564.31;4469432;32;34537;-84
2021/06/03 00:38:35;;;;;;;11.88;6.75;;;;;;;15.80;55.41;100560.88;4469145;32;33896;-84
2021/06/03 00:41:04;;;;;;;9.70;5.65;;;;;;;15.88;55.44;100567.78;4469256;32;32828;-85
2021/06/03 00:43:32;;;;;;;10.35;6.30;;;;;;;15.80;55.63;100567.00;4469244;32;33927;-84
2021/06/03 00:45:59;;;;;;;8.75;6.18;;;;;;;15.80;55.56;100563.50;4456323;32;34668;-84
2021/06/03 00:48:28;;;;;;;8.07;5.78;;;;;;;15.68;55.82;100564.47;4470430;32;35181;-84
2021/06/03 00:50:59;;;;;;;9.25;5.70;;;;;;;15.63;55.77;100566.28;4456590;32;32832;-84
2021/06/03 00:53:27;;;;;;;9.40;5.78;;;;;;;15.64;55.69;100572.37;4469284;32;33411;-84
2021/06/03 00:55:57;;;;;;;13.02;5.50;;;;;;;15.73;55.44;100570.56;4469133;32;34377;-84
2021/06/03 00:58:25;;;;;;;7.82;5.53;;;;;;;15.78;55.19;100571.41;4469312;32;33971;-84
2021/06/03 01:00:54;;;;;;;8.50;5.37;;;;;;;15.75;55.32;100571.41;4469229;32;33182;-84
2021/06/03 01:03:25;;;;;;;7.65;5.20;;;;;;;15.77;55.25;100571.38;4468877;32;36352;-84
2021/06/03 01:05:59;;;;;;;8.02;5.57;;;;;;;15.79;55.74;100569.63;4456463;32;34822;-84
2021/06/03 01:08:37;;;;;;;8.23;5.75;;;;;;;15.73;55.96;100577.56;4469120;32;34276;-84
2021/06/03 01:11:07;;;;;;;11.30;5.32;;;;;;;15.70;55.73;100582.81;4456020;32;33425;-84
2021/06/03 01:13:52;;;;;;;8.50;5.35;;;;;;;15.82;55.90;100580.09;4455868;32;33401;-84
2021/06/03 01:16:25;;;;;;;6.65;4.87;;;;;;;15.73;56.04;100582.78;4468733;32;34379;-84
2021/06/03 01:18:55;;;;;;;9.30;5.70;;;;;;;15.69;56.33;100583.72;4469046;32;33714;-84
2021/06/03 01:22:08;;;;;;;9.98;6.03;;;;;;;15.64;56.25;100577.62;4468933;32;34197;-84
2021/06/03 01:24:38;;;;;;;11.50;5.95;;;;;;;15.69;56.29;100581.09;4421225;32;33855;-84
2021/06/03 01:27:09;;;;;;;10.52;6.07;;;;;;;15.74;55.89;100580.16;4468640;32;34816;-84
2021/06/03 01:30:02;;;;;;;7.83;5.27;;;;;;;15.67;56.19;100582.84;4468580;32;33865;-84
2021/06/03 01:32:31;;;;;;;12.48;6.60;;;;;;;15.67;55.83;100594.19;4468854;32;33266;-84
2021/06/03 01:34:59;;;;;;;7.40;5.03;;;;;;;15.75;55.98;100596.75;4468349;32;35261;-84
2021/06/03 01:37:27;;;;;;;10.40;5.97;;;;;;;15.68;55.67;100590.72;4468382;32;34382;-84
2021/06/03 01:39:55;;;;;;;11.38;5.87;;;;;;;15.67;55.68;100588.06;4469193;32;33407;-84
2021/06/03 01:42:23;;;;;;;7.20;5.30;;;;;;;15.66;55.69;100586.34;4457857;32;33264;-84
2021/06/03 01:44:51;;;;;;;8.77;5.28;;;;;;;15.71;55.31;100589.81;4470327;32;34569;-84
2021/06/03 01:47:19;;;;;;;10.57;6.55;;;;;;;15.74;55.38;100589.75;4445151;32;34913;-85
2021/06/03 01:49:47;;;;;;;10.18;6.07;;;;;;;15.75;55.37;100587.16;4470840;32;34688;-84
2021/06/03 01:52:15;;;;;;;9.32;5.68;;;;;;;15.68;55.26;100597.69;4471648;32;33250;-84
2021/06/03 01:54:44;;;;;;;10.18;5.55;;;;;;;15.60;55.35;100597.75;4457620;32;35142;-84
2021/06/03 01:57:13;;;;;;;13.10;6.18;;;;;;;15.56;55.03;100589.06;4470623;32;34354;-85
2021/06/03 01:59:42;;;;;;;13.90;6.10;;;;;;;15.47;55.25;100590.88;4470398;32;34300;-84
2021/06/03 02:02:09;;;;;;;10.18;5.90;;;;;;;15.55;54.92;100595.16;4471341;32;34132;-84
2021/06/03 02:04:38;;;;;;;10.70;5.93;;;;;;;15.56;54.76;100591.69;4457633;32;33993;-85
2021/06/03 02:07:06;;;;;;;9.50;5.53;;;;;;;15.56;54.85;100602.16;4471668;32;34531;-84
2021/06/03 02:09:34;;;;;;;9.27;5.97;;;;;;;15.56;54.75;100602.16;4470402;32;33976;-84
2021/06/03 02:12:03;;;;;;;11.60;6.15;;;;;;;15.59;54.59;100599.50;4457495;32;32946;-84
2021/06/03 02:14:35;;;;;;;12.88;6.15;;;;;;;15.50;54.81;100593.44;4445169;32;33164;-85
2021/06/03 02:17:10;;;;;;;9.95;5.97;;;;;;;15.42;55.15;100598.75;4457468;32;34467;-84
2021/06/03 02:19:48;;;;;;;15.40;5.97;;;;;;;15.40;55.45;100594.41;4470326;32;34067;-85
2021/06/03 02:22:16;;;;;;;11.10;6.22;;;;;;;15.51;55.25;100601.31;4470276;32;33357;-85
2021/06/03 02:24:47;;;;;;;10.02;6.32;;;;;;;15.43;55.67;100605.72;4470292;32;35295;-84
2021/06/03 02:27:17;;;;;;;9.38;5.80;;;;;;;15.35;56.43;100606.66;4445075;32;34056;-84
2021/06/03 02:29:47;;;;;;;10.95;6.40;;;;;;;15.32;56.25;100606.66;4444639;32;33556;-85
2021/06/03 02:32:16;;;;;;;11.65;6.75;;;;;;;15.28;56.54;100605.84;4470447;32;33437;-84
2021/06/03 02:34:47;;;;;;;11.60;6.47;;;;;;;15.40;56.23;100605.72;4470668;32;34325;-85
2021/06/03 02:37:17;;;;;;;11.50;6.15;;;;;;;15.42;56.16;100604.00;4470168;32;34416;-84
2021/06/03 02:39:48;;;;;;;11.05;6.30;;;;;;;15.45;55.99;100601.34;4470109;32;34594;-84
2021/06/03 02:42:17;;;;;;;11.40;6.97;;;;;;;15.42;56.12;100604.00;4470140;32;33431;-84
2021/06/03 02:44:46;;;;;;;10.10;5.82;;;;;;;15.52;55.92;100603.06;4469888;32;34503;-84
2021/06/03 02:47:14;;;;;;;14.63;6.60;;;;;;;15.56;55.80;100607.41;4470038;32;35275;-84
2021/06/03 02:49:42;;;;;;;12.57;6.62;;;;;;;15.57;56.24;100608.25;4457264;32;33943;-84
2021/06/03 02:52:10;;;;;;;13.25;6.20;;;;;;;15.49;56.42;100610.09;4457047;32;33348;-85
2021/06/03 02:54:38;;;;;;;15.20;6.15;;;;;;;15.49;56.41;100620.56;4457482;32;33284;-85
2021/06/03 02:57:07;;;;;;;11.38;6.12;;;;;;;15.47;56.39;100611.84;4456970;32;35087;-84
2021/06/03 02:59:35;;;;;;;9.60;5.80;;;;;;;15.53;56.42;100617.91;4470021;32;33923;-85
2021/06/03 03:02:02;;;;;;;10.98;6.12;;;;;;;15.49;56.55;100618.81;4469763;32;33731;-84
2021/06/03 03:04:31;;;;;;;12.00;6.30;;;;;;;15.49;56.68;100617.94;4469813;32;34244;-84
2021/06/03 03:06:59;;;;;;;14.18;6.60;;;;;;;15.56;56.59;100625.75;4457328;32;33885;-84
2021/06/03 03:09:27;;;;;;;13.43;6.37;;;;;;;15.54;56.68;100629.28;4444705;32;35330;-84
2021/06/03 03:11:55;;;;;;;12.00;6.20;;;;;;;15.77;56.23;100634.34;4457359;32;33735;-84
2021/06/03 03:14:24;;;;;;;12.30;6.37;;;;;;;15.70;56.39;100627.41;4469931;32;34210;-84
2021/06/03 03:16:54;;;;;;;12.05;6.25;;;;;;;15.75;56.39;100628.22;4469828;32;33771;-84
2021/06/03 03:19:22;;;;;;;13.82;7.00;;;;;;;15.68;56.48;100631.78;4456965;32;33366;-84
2021/06/03 03:21:49;;;;;;;16.30;6.68;;;;;;;15.73;56.32;100630.00;4469868;32;33274;-84
2021/06/03 03:24:17;;;;;;;10.70;6.72;;;;;;;15.83;56.38;100636.91;4469871;32;33573;-84
2021/06/03 03:26:45;;;;;;;13.60;6.28;;;;;;;15.86;56.63;100635.12;4469676;32;34440;-84
2021/06/03 03:29:13;;;;;;;12.65;6.62;;;;;;;15.86;56.57;100634.25;4470171;32;34618;-85
2021/06/03 03:31:41;;;;;;;12.05;6.40;;;;;;;15.88;56.51;100648.25;4470118;32;33687;-84
2021/06/03 03:34:10;;;;;;;11.18;5.93;;;;;;;16.01;56.45;100636.75;4469723;32;34635;-84
2021/06/03 03:36:38;;;;;;;10.00;5.50;;;;;;;15.80;57.11;100642.19;4470738;32;34445;-85
2021/06/03 03:39:07;;;;;;;10.20;5.70;;;;;;;15.97;56.08;100643.78;4457108;32;34454;-84
2021/06/03 03:41:35;;;;;;;11.45;5.85;;;;;;;16.01;56.00;100652.50;4471084;32;34076;-84
2021/06/03 03:44:03;;;;;;;11.15;7.07;;;;;;;16.01;55.90;100658.63;4469777;32;33893;-84
2021/06/03 03:46:31;;;;;;;10.52;6.95;;;;;;;15.95;55.99;100653.41;4470870;32;35232;-84
2021/06/03 03:48:59;;;;;;;16.25;6.15;;;;;;;16.16;55.92;100649.75;4470157;32;33856;-84
2021/06/03 03:51:27;;;;;;;10.18;5.90;;;;;;;16.13;55.95;100641.88;4470993;32;33288;-84
2021/06/03 03:53:56;;;;;;;12.43;6.15;;;;;;;16.10;56.11;100652.41;4470944;32;33785;-84
2021/06/03 03:56:25;;;;;;;13.52;6.95;;;;;;;16.15;56.10;100650.63;4457109;32;34629;-84
2021/06/03 03:58:54;;;;;;;9.05;5.32;;;;;;;16.32;55.86;100658.31;4444535;32;33550;-84
2021/06/03 04:01:22;;;;;;;14.87;6.28;;;;;;;16.31;56.04;100665.31;4456964;32;33245;-85
2021/06/03 04:03:51;;;;;;;7.87;4.87;;;;;;;16.36;56.12;100658.28;4468614;32;34188;-84
2021/06/03 04:06:19;;;;;;;10.95;4.75;;;;;;;16.44;55.80;100658.22;4469622;32;34388;-84
2021/06/03 04:08:47;;;;;;;7.30;4.80;;;;;;;16.61;55.44;100656.31;4469559;32;34018;-84
2021/06/03 04:11:15;;;;;;;10.15;4.22;;;;;;;16.61;55.20;100654.56;4469683;32;33370;-84
2021/06/03 04:13:43;;;;;;;5.93;3.75;;;;;;;16.68;54.84;100661.47;4456881;32;34297;-84
2021/06/03 04:16:12;;;;;;;7.40;4.40;;;;;;;16.70;54.76;100653.56;4469671;32;34449;-84
2021/06/03 04:18:40;;;;;;;7.30;3.95;;;;;;;16.93;54.18;100665.53;4456592;32;33337;-84
2021/06/03 04:21:08;;;;;;;7.70;4.20;;;;;;;16.99;53.90;100658.47;4443834;32;32327;-84
2021/06/03 04:23:38;;;;;;;8.93;4.60;;;;;;;17.08;53.45;100655.72;4470794;32;34697;-85
2021/06/03 04:26:06;;;;;;;9.68;4.32;;;;;;;17.20;52.77;100658.19;4456692;32;34309;-84
2021/06/03 04:28:34;;;;;;;6.55;4.22;;;;;;;17.38;51.80;100663.19;4456714;32;33963;-84
2021/06/03 04:31:02;;;;;;;9.40;4.25;;;;;;;17.37;52.18;100657.09;4456417;32;34195;-84
2021/06/03 04:33:31;;;;;;;9.68;3.90;;;;;;;17.44;52.30;100661.38;4470343;32;33826;-84
2021/06/03 04:35:59;;;;;;;7.07;4.03;;;;;;;17.57;52.01;100664.69;4469094;32;34506;-84
2021/06/03 04:38:26;;;;;;;6.00;3.85;;;;;;;17.53;51.74;100663.00;4456204;32;33696;-84
2021/06/03 04:40:54;;;;;;;5.28;3.40;;;;;;;17.65;51.44;100667.22;4469291;32;33946;-84
2021/06/03 04:43:22;;;;;;;6.28;3.55;;;;;;;17.82;50.04;100663.44;4443556;32;33536;-85
2021/06/03 04:45:50;;;;;;;6.30;3.80;;;;;;;17.89;50.25;100667.72;4456304;32;34975;-84
2021/06/03 04:48:18;;;;;;;4.55;3.62;;;;;;;17.94;49.76;100665.88;4456349;32;34582;-84
2021/06/03 04:50:46;;;;;;;5.37;3.17;;;;;;;18.04;49.15;100664.81;4456341;32;33871;-84
2021/06/03 04:53:17;;;;;;;6.55;3.65;;;;;;;18.03;49.36;100660.44;4456138;32;34014;-85
2021/06/03 04:55:46;;;;;;;8.38;4.35;;;;;;;18.06;49.58;100660.41;4469191;32;34424;-84
2021/06/03 04:58:13;;;;;;;6.55;3.60;;;;;;;18.02;50.48;100661.34;4470264;32;34069;-84
2021/06/03 05:00:42;;;;;;;9.27;4.00;;;;;;;18.17;50.34;100662.84;4468711;32;33677;-84
2021/06/03 05:03:11;;;;;;;5.72;3.60;;;;;;;18.24;50.38;100665.34;4468590;32;33833;-84
2021/06/03 05:05:42;;;;;;;9.77;3.53;;;;;;;18.43;49.84;100665.88;4469212;32;35864;-85
2021/06/03 05:08:10;;;;;;;6.87;3.00;;;;;;;18.46;49.63;100665.84;4456254;32;34691;-85
2021/06/03 05:10:38;;;;;;;5.75;3.78;;;;;;;18.37;48.16;100667.75;4468834;32;34533;-84
2021/06/03 05:13:06;;;;;;;5.12;2.90;;;;;;;18.48;46.62;100661.44;4456084;32;33211;-85
2021/06/03 05:15:34;;;;;;;6.20;3.58;;;;;;;18.61;46.09;100662.91;4469256;32;35250;-85
2021/06/03 05:18:07;;;;;;;3.87;2.55;;;;;;;18.60;46.08;100665.59;4456214;32;34348;-84
2021/06/03 05:20:35;;;;;;;10.10;3.22;;;;;;;18.61;45.95;100665.56;4468974;32;33996;-84
2021/06/03 05:23:03;;;;;;;3.92;2.90;;;;;;;18.69;45.58;100665.41;4468563;32;34199;-84
2021/06/03 05:25:32;;;;;;;7.65;2.85;;;;;;;18.72;46.25;100668.00;4468581;32;34367;-84
2021/06/03 05:28:01;;;;;;;4.25;2.85;;;;;;;18.75;46.16;100666.19;4468179;32;33833;-84
2021/06/03 05:30:29;;;;;;;5.62;2.85;;;;;;;18.96;45.30;100659.59;4468989;32;33197;-84
2021/06/03 05:32:57;;;;;;;5.55;2.70;;;;;;;18.93;44.52;100654.37;4442797;32;35116;-84
2021/06/03 05:35:26;;;;;;;6.72;2.75;;;;;;;19.20;44.29;100659.09;4442741;32;33605;-85
2021/06/03 05:37:53;;;;;;;5.87;2.92;;;;;;;19.24;44.31;100658.09;4468058;32;35137;-84
2021/06/03 05:40:24;;;;;;;6.05;3.12;;;;;;;19.36;42.73;100668.41;4455254;32;33254;-84
2021/06/03 05:42:53;;;;;;;11.50;3.28;;;;;;;19.45;42.80;100667.34;4467978;32;33842;-84
2021/06/03 05:45:21;;;;;;;7.43;2.60;;;;;;;19.57;41.99;100670.56;4468076;32;34552;-84
2021/06/03 05:47:49;;;;;;;7.85;3.00;;;;;;;19.46;40.09;100666.44;4468038;32;34691;-84
2021/06/03 05:50:20;;;;;;;4.25;2.15;;;;;;;19.54;41.90;100662.72;4469101;32;33457;-84
2021/06/03 05:52:47;;;;;;;5.05;2.47;;;;;;;19.69;39.89;100665.91;4467908;32;33939;-84
2021/06/03 05:55:15;;;;;;;4.62;2.25;;;;;;;19.70;40.21;100667.66;4454910;32;35224;-85
2021/06/03 05:57:44;;;;;;;5.25;2.30;;;;;;;19.78;40.23;100665.72;4467097;32;35204;-85
2021/06/03 06:00:17;;;;;;;3.95;2.10;;;;;;;19.88;36.47;100673.34;4466819;32;33610;-85
2021/06/03 06:08:04;;;;;;;6.40;2.37;;;;;;;20.00;37.21;100678.34;4468620;32;35216;-83
2021/06/03 06:10:33;;;;;;;6.37;2.92;;;;;;;19.95;36.33;100674.06;4468379;32;33697;-83
2021/06/03 06:13:01;;;;;;;4.15;2.83;;;;;;;20.17;36.55;100685.84;4468445;32;33900;-86
2021/06/03 06:15:30;;;;;;;8.30;3.17;;;;;;;20.19;37.13;100681.37;4455302;32;34510;-85
2021/06/03 06:17:58;;;;;;;5.50;2.30;;;;;;;20.20;37.48;100691.03;4441533;32;34443;-83
2021/06/03 06:20:26;;;;;;;7.00;2.35;;;;;;;20.28;36.86;100686.44;4467457;32;34567;-83
2021/06/03 06:22:55;;;;;;;4.37;2.33;;;;;;;20.59;36.68;100690.03;4468266;32;33871;-84
2021/06/03 06:25:23;;;;;;;4.15;2.58;;;;;;;20.62;35.37;100691.72;4454527;32;33919;-84
2021/06/03 06:27:55;;;;;;;6.20;2.33;;;;;;;20.81;35.02;100691.19;4470340;32;34065;-84
2021/06/03 06:30:25;;;;;;;8.27;2.78;;;;;;;20.92;35.66;100694.37;4456937;32;33382;-83
2021/06/03 06:32:54;;;;;;;9.68;2.67;;;;;;;20.98;35.67;100695.13;4469606;32;33196;-83
2021/06/03 06:35:21;;;;;;;3.25;2.20;;;;;;;20.85;35.83;100695.47;4469340;32;34457;-84
2021/06/03 06:37:50;;;;;;;4.30;2.10;;;;;;;21.16;35.56;100697.25;4469433;32;33922;-84
2021/06/03 06:40:18;;;;;;;4.55;2.22;;;;;;;21.23;33.78;100690.87;4456812;32;32795;-84
2021/06/03 06:42:53;;;;;;;4.30;2.28;;;;;;;21.26;33.43;100691.66;4469430;32;33821;-84
2021/06/03 06:45:27;;;;;;;5.55;2.20;;;;;;;21.40;33.87;100692.13;4457337;32;33791;-84
2021/06/03 06:47:57;;;;;;;7.43;2.33;;;;;;;21.50;33.72;100692.69;4469445;32;35276;-84
2021/06/03 06:50:26;;;;;;;4.45;2.30;;;;;;;21.57;33.18;100695.13;4469445;32;33339;-83
2021/06/03 06:52:55;;;;;;;10.05;2.75;;;;;;;21.79;32.60;100695.31;4470816;32;34551;-83
2021/06/03 06:55:23;;;;;;;4.70;2.30;;;;;;;22.11;31.98;100703.09;4469161;32;34431;-83
2021/06/03 06:57:52;;;;;;;9.02;2.47;;;;;;;22.27;31.81;100697.31;4456645;32;33948;-84
2021/06/03 07:00:23;;;;;;;4.62;2.22;;;;;;;22.41;32.54;100705.66;4469335;32;34056;-84
2021/06/03 07:02:51;;;;;;;3.95;2.33;;;;;;;22.58;31.13;100704.13;4470408;32;35168;-83
2021/06/03 07:05:19;;;;;;;8.38;2.17;;;;;;;22.53;30.83;100702.56;4469473;32;35821;-84
2021/06/03 07:07:46;;;;;;;7.15;2.65;;;;;;;22.54;30.37;100699.88;4470032;32;34084;-85
2021/06/03 07:10:14;;;;;;;3.03;2.00;;;;;;;22.95;31.04;100709.03;4469955;32;33199;-85
2021/06/03 07:12:42;;;;;;;3.42;2.03;;;;;;;22.97;31.84;100706.31;4457263;32;33494;-86
2021/06/03 07:15:12;;;;;;;5.87;2.12;;;;;;;23.26;30.85;100708.75;4470804;32;34384;-86
2021/06/03 07:17:40;;;;;;;10.60;2.30;;;;;;;23.34;29.09;100699.56;4457053;32;34647;-86
2021/06/03 07:20:10;;;;;;;5.72;2.20;;;;;;;23.60;28.57;100698.63;4469747;32;33346;-84
2021/06/03 07:22:39;;;;;;;5.95;2.17;;;;;;;23.57;28.25;100709.34;4469933;32;34585;-86
2021/06/03 07:25:09;;;;;;;6.57;2.37;;;;;;;23.67;28.23;100702.75;4469820;32;34420;-85
2021/06/03 07:27:38;;;;;;;3.58;2.40;;;;;;;23.93;27.41;100701.72;4469615;32;34300;-85
2021/06/03 07:30:07;;;;;;;6.43;1.83;;;;;;;23.90;27.13;100705.34;4469335;32;33362;-86
2021/06/03 07:32:35;;;;;;;3.42;2.08;;;;;;;24.04;26.48;100702.13;4469775;32;34254;-86
2021/06/03 07:35:09;;;;;;;5.87;2.10;;;;;;;24.29;26.36;100702.88;4456777;32;34256;-85
2021/06/03 07:37:37;;;;;;;5.47;2.37;;;;;;;24.56;26.04;100709.66;4468956;32;35205;-85
2021/06/03 07:40:08;;;;;;;5.68;2.30;;;;;;;24.28;27.47;100706.47;4469099;32;34021;-85
2021/06/03 07:42:36;;;;;;;2.47;1.73;;;;;;;24.43;25.49;100710.28;4470604;32;34257;-86
2021/06/03 07:45:07;;;;;;;3.92;2.15;;;;;;;24.35;24.96;100707.94;4469482;32;36160;-87
2021/06/03 07:47:35;;;;;;;3.00;1.83;;;;;;;24.47;25.35;100703.88;4469742;32;36482;-86
2021/06/03 07:50:04;;;;;;;3.35;1.80;;;;;;;24.73;25.39;100703.62;4469488;32;33965;-87
2021/06/03 07:52:33;;;;;;;2.97;1.70;;;;;;;24.80;25.01;100711.31;4456820;32;33746;-87
2021/06/03 07:55:06;;;;;;;4.47;1.55;;;;;;;24.97;23.67;100710.56;4456665;32;34320;-86
2021/06/03 07:57:34;;;;;;;9.85;2.22;;;;;;;24.88;24.62;100714.50;4470691;32;33804;-87
2021/06/03 08:00:07;;;;;;;5.50;1.95;;;;;;;24.96;24.69;100705.31;4469492;32;33389;-87
2021/06/03 08:02:42;;;;;;;5.35;1.87;;;;;;;24.98;24.91;100714.09;4469222;32;33495;-87
2021/06/03 08:05:12;;;;;;;3.37;1.70;;;;;;;25.03;24.75;100712.09;4469321;32;34686;-84
2021/06/03 08:07:40;;;;;;;5.68;2.37;;;;;;;25.14;25.99;100715.13;4442916;32;34840;-83
2021/06/03 08:10:10;;;;;;;4.00;1.92;;;;;;;25.12;25.22;100714.31;4469587;32;33265;-83
2021/06/03 08:12:38;;;;;;;3.12;2.05;;;;;;;24.85;26.03;100714.63;4455532;32;34687;-83
2021/06/03 08:15:08;;;;;;;3.60;1.83;;;;;;;24.84;28.71;100704.91;4455646;32;35332;-83
2021/06/03 08:17:36;;;;;;;4.78;2.00;;;;;;;24.92;26.06;100712.56;4455519;32;34081;-83
2021/06/03 08:20:08;;;;;;;7.68;2.47;;;;;;;25.00;25.76;100714.87;4468459;32;32788;-85
2021/06/03 08:22:36;;;;;;;4.12;2.12;;;;;;;24.94;25.79;100712.50;4455620;32;32790;-83
2021/06/03 08:25:04;;;;;;;4.57;2.05;;;;;;;24.99;25.23;100715.78;4468211;32;34522;-83
2021/06/03 08:27:32;;;;;;;4.20;2.28;;;;;;;24.73;26.36;100711.59;4468144;32;33993;-83
2021/06/03 08:30:00;;;;;;;7.45;2.17;;;;;;;24.82;25.80;100722.75;4468371;32;33556;-83
2021/06/03 08:32:28;;;;;;;4.28;1.95;;;;;;;25.02;25.11;100718.31;4468132;32;33799;-83
2021/06/03 08:34:55;;;;;;;4.00;1.92;;;;;;;25.15;25.38;100722.19;4468891;32;34409;-86
2021/06/03 08:37:23;;;;;;;2.37;1.80;;;;;;;25.23;24.84;100717.34;4470312;32;34960;-86
2021/06/03 08:39:51;;;;;;;4.45;2.03;;;;;;;25.21;24.88;100714.78;4470209;32;34625;-86
2021/06/03 08:42:18;;;;;;;5.50;1.90;;;;;;;25.48;23.91;100716.16;4469118;32;33728;-86
2021/06/03 08:44:46;;;;;;;3.12;1.70;;;;;;;25.27;24.12;100710.97;4469148;32;34699;-86
2021/06/03 08:47:14;;;;;;;4.18;2.03;;;;;;;25.29;24.59;100709.94;4470175;32;34512;-86
2021/06/03 08:49:41;;;;;;;3.37;1.60;;;;;;;25.44;24.46;100705.72;4455355;32;34270;-87
2021/06/03 08:52:09;;;;;;;4.57;2.08;;;;;;;25.46;23.89;100703.84;4468989;32;34686;-86
2021/06/03 08:54:39;;;;;;;4.80;1.85;;;;;;;25.63;23.84;100705.72;4455974;32;34268;-86
2021/06/03 08:57:09;;;;;;;6.05;2.25;;;;;;;25.63;23.39;100706.59;4468838;32;33438;-86
2021/06/03 08:59:37;;;;;;;2.85;2.17;;;;;;;25.45;24.38;100697.69;4469039;32;33906;-86
2021/06/03 09:02:05;;;;;;;9.10;2.35;;;;;;;25.28;25.21;100692.25;4456080;32;33981;-86
2021/06/03 09:04:32;;;;;;;5.45;2.30;;;;;;;25.32;25.34;100700.94;4455666;32;35472;-84
2021/06/03 09:07:00;;;;;;;4.10;2.22;;;;;;;25.50;26.51;100697.47;4468136;32;34425;-84
2021/06/03 09:09:29;;;;;;;7.00;2.47;;;;;;;25.48;27.30;100699.34;4455203;32;33023;-84
2021/06/03 09:12:14;;;;;;;5.53;2.10;;;;;;;25.57;25.71;100696.25;4468290;32;33892;-84
2021/06/03 09:14:42;;;;;;;4.95;2.55;;;;;;;25.64;25.61;100695.00;4468210;32;34652;-83
2021/06/03 09:17:12;;;;;;;7.00;2.20;;;;;;;25.60;24.63;100696.09;4468399;32;34385;-84
2021/06/03 09:20:00;;;;;;;6.75;2.62;;;;;;;25.55;26.85;100690.97;4455606;32;33443;-83
2021/06/03 09:22:39;;;;;;;5.20;2.10;;;;;;;25.62;26.60;100698.69;4468235;32;35039;-83
2021/06/03 09:25:32;;;;;;;4.32;2.17;;;;;;;25.60;25.37;100690.78;4469163;32;34339;-83
2021/06/03 09:28:30;;;;;;;5.28;2.10;;;;;;;25.59;25.27;100686.38;4455323;32;33869;-83
2021/06/03 09:31:11;;;;;;;3.78;2.15;;;;;;;25.66;26.11;100695.81;4460590;32;34011;-83
2021/06/03 09:33:51;;;;;;;6.45;2.20;;;;;;;25.85;25.01;100691.31;4467862;32;33887;-83
2021/06/03 09:36:27;;;;;;;7.07;2.30;;;;;;;25.81;26.15;100689.75;4467743;32;34748;-82
2021/06/03 09:39:20;;;;;;;4.15;2.10;;;;;;;25.87;26.72;100692.09;4467730;32;33901;-83
2021/06/03 09:42:01;;;;;;;9.60;2.10;;;;;;;25.65;27.75;100693.22;4468790;32;34213;-83
2021/06/03 09:44:34;;;;;;;6.43;2.28;;;;;;;26.05;24.94;100693.84;4455205;32;35305;-83
2021/06/03 09:47:27;;;;;;;4.12;2.35;;;;;;;25.97;25.57;100692.50;4457069;32;34104;-83
2021/06/03 09:49:55;;;;;;;5.97;2.55;;;;;;;26.00;26.45;100693.22;4467688;32;33909;-83
2021/06/03 09:52:28;;;;;;;3.87;2.30;;;;;;;26.10;25.22;100688.31;4467420;32;34197;-82
2021/06/03 09:54:58;;;;;;;5.68;2.22;;;;;;;25.97;24.83;100696.03;4454596;32;33266;-84
2021/06/03 09:57:34;;;;;;;3.75;2.03;;;;;;;26.05;25.00;100685.84;4454556;32;33696;-83
2021/06/03 10:00:13;;;;;;;7.60;2.30;;;;;;;26.05;24.71;100677.84;4454551;32;34368;-84
2021/06/03 10:02:43;;;;;;;4.97;2.15;;;;;;;25.87;26.93;100673.44;4469921;32;33350;-83
2021/06/03 10:05:12;;;;;;;3.00;2.08;;;;;;;25.67;28.11;100670.91;4469823;32;34059;-83
2021/06/03 10:07:53;;;;;;;5.87;2.42;;;;;;;25.70;27.45;100676.06;4470727;32;34260;-83
2021/06/03 10:10:22;;;;;;;5.67;2.20;;;;;;;25.73;28.76;100672.38;4469636;32;35291;-83
2021/06/03 10:12:51;;;;;;;4.75;2.40;;;;;;;26.00;25.72;100671.03;4469364;32;33401;-83
2021/06/03 10:15:25;;;;;;;6.68;2.37;;;;;;;25.82;28.83;100667.47;4469590;32;35172;-83
2021/06/03 10:17:54;;;;;;;4.28;2.00;;;;;;;25.87;26.92;100665.44;4469439;32;35784;-83
2021/06/03 10:20:29;;;;;;;5.55;2.33;;;;;;;25.87;27.42;100668.09;4456614;32;33762;-83
2021/06/03 10:22:57;;;;;;;5.57;2.20;;;;;;;26.11;25.53;100663.38;4469535;32;33310;-83
2021/06/03 10:25:31;;;;;;;7.22;2.25;;;;;;;26.26;25.42;100659.97;4469574;32;34576;-83
2021/06/03 10:28:11;;;;;;;5.45;1.87;;;;;;;25.85;27.29;100664.66;4456717;32;34006;-83
2021/06/03 10:30:41;;;;;;;4.50;2.30;;;;;;;26.27;26.25;100664.34;4469585;32;35120;-83
2021/06/03 10:33:12;;;;;;;2.50;1.92;;;;;;;26.27;26.21;100655.50;4470690;32;33593;-83
2021/06/03 10:35:43;;;;;;;4.28;2.17;;;;;;;26.47;25.17;100653.50;4469363;32;33979;-82
2021/06/03 10:38:11;;;;;;;4.90;2.28;;;;;;;26.36;26.39;100655.00;4456234;32;34440;-83
2021/06/03 10:40:44;;;;;;;3.40;2.25;;;;;;;26.37;24.58;100643.38;4456274;32;33922;-83
2021/06/03 10:43:12;;;;;;;5.80;2.08;;;;;;;26.38;24.62;100642.47;4469148;32;33333;-83
2021/06/03 10:45:41;;;;;;;4.07;2.03;;;;;;;26.59;25.63;100636.00;4470246;32;34146;-83
2021/06/03 10:48:09;;;;;;;4.57;2.28;;;;;;;26.86;27.03;100629.25;4469029;32;34368;-83
2021/06/03 10:50:41;;;;;;;5.47;2.25;;;;;;;26.91;26.50;100632.50;4469887;32;34776;-83
2021/06/03 10:53:10;;;;;;;4.72;1.77;;;;;;;26.87;25.10;100637.16;4469181;32;33294;-83
2021/06/03 10:55:41;;;;;;;4.90;2.00;;;;;;;27.11;23.86;100645.62;4456683;32;34609;-83
2021/06/03 10:58:11;;;;;;;3.33;1.90;;;;;;;26.97;24.44;100633.97;4469059;32;34387;-83
2021/06/03 11:00:43;;;;;;;4.40;2.00;;;;;;;26.98;25.44;100633.87;4469186;32;33963;-84
2021/06/03 11:03:18;;;;;;;6.22;2.25;;;;;;;27.09;25.81;100635.97;4470184;32;33313;-83
2021/06/03 11:05:48;;;;;;;7.22;2.42;;;;;;;27.34;24.40;100642.53;4469158;32;34658;-83
2021/06/03 11:08:48;;;;;;;4.97;2.00;;;;;;;27.28;26.96;100640.22;4469102;32;34747;-82
2021/06/03 11:11:15;;;;;;;4.10;2.22;;;;;;;27.37;25.56;100637.06;4468976;32;35248;-83
2021/06/03 11:13:46;;;;;;;7.15;2.12;;;;;;;27.25;24.84;100632.38;4470005;32;33284;-83
2021/06/03 11:16:21;;;;;;;6.40;2.35;;;;;;;27.24;25.75;100635.97;4456707;32;33353;-83
2021/06/03 11:18:49;;;;;;;2.90;1.90;;;;;;;27.17;25.77;100639.94;4456499;32;34598;-84
2021/06/03 11:21:45;;;;;;;5.25;2.22;;;;;;;26.97;26.43;100637.50;4470603;32;33940;-83
2021/06/03 11:24:15;;;;;;;5.47;2.40;;;;;;;27.01;25.36;100628.38;4470302;32;34147;-83
2021/06/03 11:26:47;;;;;;;4.82;2.05;;;;;;;27.03;26.20;100622.97;4469363;32;33360;-84
2021/06/03 11:29:24;;;;;;;5.35;2.22;;;;;;;27.15;25.61;100628.47;4469015;32;34274;-83
2021/06/03 11:32:16;;;;;;;2.87;2.15;;;;;;;27.18;25.74;100625.66;4470274;32;34090;-83
2021/06/03 11:34:50;;;;;;;6.03;2.05;;;;;;;27.41;23.91;100619.91;4469230;32;33673;-83
2021/06/03 11:37:44;;;;;;;4.65;2.40;;;;;;;27.50;25.88;100615.88;4469126;32;35038;-83
2021/06/03 11:40:22;;;;;;;4.72;2.00;;;;;;;27.50;26.61;100618.56;4456345;32;34413;-85
2021/06/03 11:42:56;;;;;;;5.70;2.30;;;;;;;27.78;24.23;100618.69;4456314;32;34600;-84
2021/06/03 11:45:45;;;;;;;3.70;2.50;;;;;;;27.73;25.69;100610.06;4468825;32;33390;-82